sensor_id;sensor_type;location;lat;lon;timestamp;P1;durP1;ratioP1;P2;durP2;ratioP2
55025;SDS011;40925;45.666;18.994;2024-03-22T00:01:02;28.40;;;14.43;;
55025;SDS011;40925;45.666;18.994;2024-03-22T00:03:28;31.58;;;15.93;;
55025;SDS011;40925;45.666;18.994;2024-03-22T00:05:54;32.30;;;15.93;;
55025;SDS011;40925;45.666;18.994;2024-03-22T00:08:20;29.75;;;15.85;;
55025;SDS011;40925;45.666;18.994;2024-03-22T00:10:46;31.58;;;16.45;;
55025;SDS011;40925;45.666;18.994;2024-03-22T00:13:11;30.58;;;16.25;;
55025;SDS011;40925;45.666;18.994;2024-03-22T00:15:37;32.70;;;16.08;;
55025;SDS011;40925;45.666;18.994;2024-03-22T00:18:02;32.85;;;16.60;;
55025;SDS011;40925;45.666;18.994;2024-03-22T00:20:28;30.75;;;16.73;;
55025;SDS011;40925;45.666;18.994;2024-03-22T00:22:54;34.22;;;17.52;;
55025;SDS011;40925;45.666;18.994;2024-03-22T00:25:20;32.47;;;18.05;;
55025;SDS011;40925;45.666;18.994;2024-03-22T00:27:46;31.15;;;16.88;;
55025;SDS011;40925;45.666;18.994;2024-03-22T00:30:12;30.60;;;14.63;;
55025;SDS011;40925;45.666;18.994;2024-03-22T00:32:39;24.88;;;13.73;;
55025;SDS011;40925;45.666;18.994;2024-03-22T00:35:05;27.20;;;13.68;;
55025;SDS011;40925;45.666;18.994;2024-03-22T00:37:31;32.22;;;14.98;;
55025;SDS011;40925;45.666;18.994;2024-03-22T00:39:56;29.85;;;14.90;;
55025;SDS011;40925;45.666;18.994;2024-03-22T00:42:22;29.75;;;15.23;;
55025;SDS011;40925;45.666;18.994;2024-03-22T00:44:48;28.70;;;14.68;;
55025;SDS011;40925;45.666;18.994;2024-03-22T00:47:13;32.25;;;15.63;;
55025;SDS011;40925;45.666;18.994;2024-03-22T00:49:39;28.85;;;15.02;;
55025;SDS011;40925;45.666;18.994;2024-03-22T00:52:08;29.15;;;14.70;;
55025;SDS011;40925;45.666;18.994;2024-03-22T00:54:33;30.77;;;15.40;;
55025;SDS011;40925;45.666;18.994;2024-03-22T00:56:59;31.23;;;14.77;;
55025;SDS011;40925;45.666;18.994;2024-03-22T00:59:25;25.77;;;13.65;;
55025;SDS011;40925;45.666;18.994;2024-03-22T01:01:50;26.67;;;12.85;;
55025;SDS011;40925;45.666;18.994;2024-03-22T01:04:16;25.67;;;13.45;;
55025;SDS011;40925;45.666;18.994;2024-03-22T01:06:42;23.80;;;12.25;;
55025;SDS011;40925;45.666;18.994;2024-03-22T01:09:07;25.98;;;12.57;;
55025;SDS011;40925;45.666;18.994;2024-03-22T01:11:33;23.90;;;12.90;;
55025;SDS011;40925;45.666;18.994;2024-03-22T01:13:59;26.90;;;13.15;;
55025;SDS011;40925;45.666;18.994;2024-03-22T01:16:26;30.25;;;15.30;;
55025;SDS011;40925;45.666;18.994;2024-03-22T01:19:03;34.08;;;15.85;;
55025;SDS011;40925;45.666;18.994;2024-03-22T01:21:29;35.90;;;16.52;;
55025;SDS011;40925;45.666;18.994;2024-03-22T01:23:55;35.55;;;16.23;;
55025;SDS011;40925;45.666;18.994;2024-03-22T01:26:21;32.60;;;15.07;;
55025;SDS011;40925;45.666;18.994;2024-03-22T01:28:47;31.25;;;15.23;;
55025;SDS011;40925;45.666;18.994;2024-03-22T01:31:12;30.77;;;14.40;;
55025;SDS011;40925;45.666;18.994;2024-03-22T01:33:38;29.92;;;14.65;;
55025;SDS011;40925;45.666;18.994;2024-03-22T01:36:04;26.90;;;13.93;;
55025;SDS011;40925;45.666;18.994;2024-03-22T01:38:30;28.25;;;14.00;;
55025;SDS011;40925;45.666;18.994;2024-03-22T01:41:00;26.40;;;13.30;;
55025;SDS011;40925;45.666;18.994;2024-03-22T01:43:26;27.38;;;13.57;;
55025;SDS011;40925;45.666;18.994;2024-03-22T01:45:52;27.00;;;13.60;;
55025;SDS011;40925;45.666;18.994;2024-03-22T01:48:17;25.60;;;13.45;;
55025;SDS011;40925;45.666;18.994;2024-03-22T01:50:43;26.73;;;13.90;;
55025;SDS011;40925;45.666;18.994;2024-03-22T01:53:09;28.42;;;13.88;;
55025;SDS011;40925;45.666;18.994;2024-03-22T01:55:35;30.67;;;14.40;;
55025;SDS011;40925;45.666;18.994;2024-03-22T01:58:01;24.85;;;13.15;;
55025;SDS011;40925;45.666;18.994;2024-03-22T02:00:28;26.67;;;13.35;;
55025;SDS011;40925;45.666;18.994;2024-03-22T02:02:53;24.83;;;13.32;;
55025;SDS011;40925;45.666;18.994;2024-03-22T02:05:19;26.08;;;14.00;;
55025;SDS011;40925;45.666;18.994;2024-03-22T02:07:46;27.08;;;13.60;;
55025;SDS011;40925;45.666;18.994;2024-03-22T02:10:12;30.45;;;15.68;;
55025;SDS011;40925;45.666;18.994;2024-03-22T02:12:39;29.65;;;14.77;;
55025;SDS011;40925;45.666;18.994;2024-03-22T02:15:05;27.38;;;14.65;;
55025;SDS011;40925;45.666;18.994;2024-03-22T02:17:34;34.53;;;15.40;;
55025;SDS011;40925;45.666;18.994;2024-03-22T02:20:01;33.58;;;16.35;;
55025;SDS011;40925;45.666;18.994;2024-03-22T02:22:29;31.95;;;16.58;;
55025;SDS011;40925;45.666;18.994;2024-03-22T02:24:55;33.55;;;17.00;;
55025;SDS011;40925;45.666;18.994;2024-03-22T02:27:21;37.00;;;18.35;;
55025;SDS011;40925;45.666;18.994;2024-03-22T02:29:47;38.35;;;18.45;;
55025;SDS011;40925;45.666;18.994;2024-03-22T02:32:13;44.83;;;21.67;;
55025;SDS011;40925;45.666;18.994;2024-03-22T02:34:38;59.05;;;29.30;;
55025;SDS011;40925;45.666;18.994;2024-03-22T02:37:04;63.80;;;31.75;;
55025;SDS011;40925;45.666;18.994;2024-03-22T02:39:33;60.55;;;28.55;;
55025;SDS011;40925;45.666;18.994;2024-03-22T02:41:58;48.28;;;24.08;;
55025;SDS011;40925;45.666;18.994;2024-03-22T02:44:24;52.28;;;24.52;;
55025;SDS011;40925;45.666;18.994;2024-03-22T02:46:50;55.65;;;26.83;;
55025;SDS011;40925;45.666;18.994;2024-03-22T02:49:15;49.28;;;24.30;;
55025;SDS011;40925;45.666;18.994;2024-03-22T02:51:41;44.80;;;22.98;;
55025;SDS011;40925;45.666;18.994;2024-03-22T02:54:07;45.28;;;22.10;;
55025;SDS011;40925;45.666;18.994;2024-03-22T02:56:33;43.88;;;21.70;;
55025;SDS011;40925;45.666;18.994;2024-03-22T02:58:58;41.00;;;21.05;;
55025;SDS011;40925;45.666;18.994;2024-03-22T03:01:24;39.30;;;20.00;;
55025;SDS011;40925;45.666;18.994;2024-03-22T03:03:50;37.15;;;18.58;;
55025;SDS011;40925;45.666;18.994;2024-03-22T03:06:16;31.38;;;17.67;;
55025;SDS011;40925;45.666;18.994;2024-03-22T03:08:44;32.53;;;17.60;;
55025;SDS011;40925;45.666;18.994;2024-03-22T03:11:10;33.70;;;17.90;;
55025;SDS011;40925;45.666;18.994;2024-03-22T03:13:36;35.20;;;18.33;;
55025;SDS011;40925;45.666;18.994;2024-03-22T03:16:02;31.40;;;17.38;;
55025;SDS011;40925;45.666;18.994;2024-03-22T03:18:28;30.15;;;16.58;;
55025;SDS011;40925;45.666;18.994;2024-03-22T03:20:54;37.22;;;16.75;;
55025;SDS011;40925;45.666;18.994;2024-03-22T03:23:20;33.53;;;16.40;;
55025;SDS011;40925;45.666;18.994;2024-03-22T03:25:46;32.58;;;16.38;;
55025;SDS011;40925;45.666;18.994;2024-03-22T03:28:12;32.63;;;17.42;;
55025;SDS011;40925;45.666;18.994;2024-03-22T03:30:38;35.70;;;17.75;;
55025;SDS011;40925;45.666;18.994;2024-03-22T03:33:04;32.95;;;17.55;;
55025;SDS011;40925;45.666;18.994;2024-03-22T03:35:30;33.55;;;17.98;;
55025;SDS011;40925;45.666;18.994;2024-03-22T03:37:56;34.17;;;17.30;;
55025;SDS011;40925;45.666;18.994;2024-03-22T03:40:22;41.05;;;20.00;;
55025;SDS011;40925;45.666;18.994;2024-03-22T03:42:50;42.30;;;21.85;;
55025;SDS011;40925;45.666;18.994;2024-03-22T03:45:16;42.63;;;21.27;;
55025;SDS011;40925;45.666;18.994;2024-03-22T03:47:42;41.33;;;20.40;;
55025;SDS011;40925;45.666;18.994;2024-03-22T03:50:08;38.63;;;19.92;;
55025;SDS011;40925;45.666;18.994;2024-03-22T03:52:35;32.20;;;17.20;;
55025;SDS011;40925;45.666;18.994;2024-03-22T03:55:01;30.95;;;16.85;;
55025;SDS011;40925;45.666;18.994;2024-03-22T03:57:27;28.42;;;15.73;;
55025;SDS011;40925;45.666;18.994;2024-03-22T03:59:53;34.17;;;17.23;;
55025;SDS011;40925;45.666;18.994;2024-03-22T04:02:19;33.22;;;15.95;;
55025;SDS011;40925;45.666;18.994;2024-03-22T04:04:44;30.70;;;15.25;;
55025;SDS011;40925;45.666;18.994;2024-03-22T04:07:10;28.58;;;15.07;;
55025;SDS011;40925;45.666;18.994;2024-03-22T04:09:37;28.98;;;14.65;;
55025;SDS011;40925;45.666;18.994;2024-03-22T04:12:03;28.58;;;15.45;;
55025;SDS011;40925;45.666;18.994;2024-03-22T04:14:29;29.75;;;15.07;;
55025;SDS011;40925;45.666;18.994;2024-03-22T04:16:54;29.35;;;15.50;;
55025;SDS011;40925;45.666;18.994;2024-03-22T04:19:22;29.60;;;15.38;;
55025;SDS011;40925;45.666;18.994;2024-03-22T04:21:48;29.52;;;16.00;;
55025;SDS011;40925;45.666;18.994;2024-03-22T04:24:17;27.52;;;15.23;;
55025;SDS011;40925;45.666;18.994;2024-03-22T04:26:42;29.23;;;15.38;;
55025;SDS011;40925;45.666;18.994;2024-03-22T04:29:08;30.73;;;15.88;;
55025;SDS011;40925;45.666;18.994;2024-03-22T04:31:34;31.58;;;16.27;;
55025;SDS011;40925;45.666;18.994;2024-03-22T04:33:59;31.88;;;16.45;;
55025;SDS011;40925;45.666;18.994;2024-03-22T04:36:25;29.52;;;15.55;;
55025;SDS011;40925;45.666;18.994;2024-03-22T04:38:51;31.05;;;15.80;;
55025;SDS011;40925;45.666;18.994;2024-03-22T04:41:16;30.65;;;16.63;;
55025;SDS011;40925;45.666;18.994;2024-03-22T04:43:45;48.67;;;26.48;;
55025;SDS011;40925;45.666;18.994;2024-03-22T04:46:11;60.53;;;32.25;;
55025;SDS011;40925;45.666;18.994;2024-03-22T04:48:37;49.15;;;27.98;;
55025;SDS011;40925;45.666;18.994;2024-03-22T04:51:03;37.50;;;21.10;;
55025;SDS011;40925;45.666;18.994;2024-03-22T04:53:29;35.45;;;18.98;;
55025;SDS011;40925;45.666;18.994;2024-03-22T04:55:55;31.60;;;17.60;;
55025;SDS011;40925;45.666;18.994;2024-03-22T04:58:21;30.20;;;15.68;;
55025;SDS011;40925;45.666;18.994;2024-03-22T05:00:47;29.55;;;15.38;;
55025;SDS011;40925;45.666;18.994;2024-03-22T05:03:15;27.23;;;15.07;;
55025;SDS011;40925;45.666;18.994;2024-03-22T05:05:42;28.00;;;14.85;;
55025;SDS011;40925;45.666;18.994;2024-03-22T05:08:08;28.05;;;14.93;;
55025;SDS011;40925;45.666;18.994;2024-03-22T05:10:34;28.25;;;14.27;;
55025;SDS011;40925;45.666;18.994;2024-03-22T05:13:00;29.25;;;14.63;;
55025;SDS011;40925;45.666;18.994;2024-03-22T05:15:26;29.35;;;14.98;;
55025;SDS011;40925;45.666;18.994;2024-03-22T05:17:52;30.13;;;15.70;;
55025;SDS011;40925;45.666;18.994;2024-03-22T05:20:19;29.70;;;15.13;;
55025;SDS011;40925;45.666;18.994;2024-03-22T05:22:46;31.55;;;16.45;;
55025;SDS011;40925;45.666;18.994;2024-03-22T05:25:12;29.13;;;15.23;;
55025;SDS011;40925;45.666;18.994;2024-03-22T05:27:40;33.65;;;17.15;;
55025;SDS011;40925;45.666;18.994;2024-03-22T05:30:07;35.60;;;19.15;;
55025;SDS011;40925;45.666;18.994;2024-03-22T05:32:33;36.03;;;17.77;;
55025;SDS011;40925;45.666;18.994;2024-03-22T05:35:00;35.50;;;18.10;;
55025;SDS011;40925;45.666;18.994;2024-03-22T05:37:26;37.72;;;18.73;;
55025;SDS011;40925;45.666;18.994;2024-03-22T05:39:52;40.28;;;19.33;;
55025;SDS011;40925;45.666;18.994;2024-03-22T05:42:21;35.60;;;18.70;;
55025;SDS011;40925;45.666;18.994;2024-03-22T05:44:47;36.20;;;17.40;;
55025;SDS011;40925;45.666;18.994;2024-03-22T05:47:17;30.13;;;16.73;;
55025;SDS011;40925;45.666;18.994;2024-03-22T05:49:43;32.22;;;15.85;;
55025;SDS011;40925;45.666;18.994;2024-03-22T05:52:09;33.30;;;16.70;;
55025;SDS011;40925;45.666;18.994;2024-03-22T05:54:35;34.55;;;17.10;;
55025;SDS011;40925;45.666;18.994;2024-03-22T05:57:00;31.88;;;16.75;;
55025;SDS011;40925;45.666;18.994;2024-03-22T05:59:27;33.30;;;17.30;;
55025;SDS011;40925;45.666;18.994;2024-03-22T06:01:52;41.80;;;20.45;;
55025;SDS011;40925;45.666;18.994;2024-03-22T06:04:18;37.78;;;18.42;;
55025;SDS011;40925;45.666;18.994;2024-03-22T06:06:44;35.15;;;17.15;;
55025;SDS011;40925;45.666;18.994;2024-03-22T06:09:10;34.30;;;17.30;;
55025;SDS011;40925;45.666;18.994;2024-03-22T06:11:38;33.63;;;16.95;;
55025;SDS011;40925;45.666;18.994;2024-03-22T06:14:04;33.58;;;16.35;;
55025;SDS011;40925;45.666;18.994;2024-03-22T06:16:30;33.40;;;16.83;;
55025;SDS011;40925;45.666;18.994;2024-03-22T06:18:56;33.03;;;18.63;;
55025;SDS011;40925;45.666;18.994;2024-03-22T06:21:22;40.03;;;20.80;;
55025;SDS011;40925;45.666;18.994;2024-03-22T06:23:50;36.95;;;20.13;;
55025;SDS011;40925;45.666;18.994;2024-03-22T06:26:16;37.55;;;19.33;;
55025;SDS011;40925;45.666;18.994;2024-03-22T06:28:42;32.45;;;17.85;;
55025;SDS011;40925;45.666;18.994;2024-03-22T06:31:08;36.65;;;16.85;;
55025;SDS011;40925;45.666;18.994;2024-03-22T06:33:34;29.10;;;16.13;;
55025;SDS011;40925;45.666;18.994;2024-03-22T06:36:00;32.17;;;16.50;;
55025;SDS011;40925;45.666;18.994;2024-03-22T06:38:29;33.70;;;16.38;;
55025;SDS011;40925;45.666;18.994;2024-03-22T06:40:55;28.58;;;15.60;;
55025;SDS011;40925;45.666;18.994;2024-03-22T06:43:21;29.55;;;15.95;;
55025;SDS011;40925;45.666;18.994;2024-03-22T06:45:46;29.98;;;16.00;;
55025;SDS011;40925;45.666;18.994;2024-03-22T06:48:12;31.92;;;16.02;;
55025;SDS011;40925;45.666;18.994;2024-03-22T06:50:42;30.75;;;16.25;;
55025;SDS011;40925;45.666;18.994;2024-03-22T06:53:08;28.27;;;15.95;;
55025;SDS011;40925;45.666;18.994;2024-03-22T06:55:36;30.40;;;15.75;;
55025;SDS011;40925;45.666;18.994;2024-03-22T06:58:02;47.80;;;28.20;;
55025;SDS011;40925;45.666;18.994;2024-03-22T07:00:28;32.40;;;15.77;;
55025;SDS011;40925;45.666;18.994;2024-03-22T07:02:54;26.75;;;14.20;;
55025;SDS011;40925;45.666;18.994;2024-03-22T07:05:21;25.60;;;14.38;;
55025;SDS011;40925;45.666;18.994;2024-03-22T07:07:47;26.88;;;13.68;;
55025;SDS011;40925;45.666;18.994;2024-03-22T07:10:15;26.65;;;13.68;;
55025;SDS011;40925;45.666;18.994;2024-03-22T07:12:41;27.40;;;15.20;;
55025;SDS011;40925;45.666;18.994;2024-03-22T07:15:06;25.98;;;13.85;;
55025;SDS011;40925;45.666;18.994;2024-03-22T07:17:33;28.65;;;14.93;;
55025;SDS011;40925;45.666;18.994;2024-03-22T07:19:59;32.58;;;14.80;;
55025;SDS011;40925;45.666;18.994;2024-03-22T07:22:25;26.27;;;14.65;;
55025;SDS011;40925;45.666;18.994;2024-03-22T07:24:51;26.48;;;14.13;;
55025;SDS011;40925;45.666;18.994;2024-03-22T07:27:16;30.30;;;14.80;;
55025;SDS011;40925;45.666;18.994;2024-03-22T07:29:43;24.50;;;13.77;;
55025;SDS011;40925;45.666;18.994;2024-03-22T07:32:09;28.08;;;14.57;;
55025;SDS011;40925;45.666;18.994;2024-03-22T07:34:35;28.13;;;15.20;;
55025;SDS011;40925;45.666;18.994;2024-03-22T07:37:00;28.50;;;15.02;;
55025;SDS011;40925;45.666;18.994;2024-03-22T07:39:26;28.52;;;14.20;;
55025;SDS011;40925;45.666;18.994;2024-03-22T07:41:52;24.40;;;13.55;;
55025;SDS011;40925;45.666;18.994;2024-03-22T07:44:18;24.00;;;14.57;;
55025;SDS011;40925;45.666;18.994;2024-03-22T07:46:49;26.48;;;15.50;;
55025;SDS011;40925;45.666;18.994;2024-03-22T07:49:16;26.02;;;14.48;;
55025;SDS011;40925;45.666;18.994;2024-03-22T07:51:41;27.67;;;14.30;;
55025;SDS011;40925;45.666;18.994;2024-03-22T07:54:07;25.80;;;13.23;;
55025;SDS011;40925;45.666;18.994;2024-03-22T07:56:33;23.83;;;12.60;;
55025;SDS011;40925;45.666;18.994;2024-03-22T07:59:02;22.88;;;13.38;;
55025;SDS011;40925;45.666;18.994;2024-03-22T08:01:30;23.45;;;12.48;;
55025;SDS011;40925;45.666;18.994;2024-03-22T08:03:56;26.05;;;12.73;;
55025;SDS011;40925;45.666;18.994;2024-03-22T08:06:22;22.90;;;12.57;;
55025;SDS011;40925;45.666;18.994;2024-03-22T08:08:48;23.75;;;13.23;;
55025;SDS011;40925;45.666;18.994;2024-03-22T08:11:14;22.38;;;12.63;;
55025;SDS011;40925;45.666;18.994;2024-03-22T08:13:40;23.77;;;12.73;;
55025;SDS011;40925;45.666;18.994;2024-03-22T08:16:05;23.10;;;12.90;;
55025;SDS011;40925;45.666;18.994;2024-03-22T08:18:31;28.38;;;13.80;;
55025;SDS011;40925;45.666;18.994;2024-03-22T08:21:01;25.63;;;13.32;;
55025;SDS011;40925;45.666;18.994;2024-03-22T08:23:27;22.73;;;12.60;;
55025;SDS011;40925;45.666;18.994;2024-03-22T08:25:53;21.52;;;12.02;;
55025;SDS011;40925;45.666;18.994;2024-03-22T08:28:19;20.35;;;12.15;;
55025;SDS011;40925;45.666;18.994;2024-03-22T08:30:48;22.02;;;12.48;;
55025;SDS011;40925;45.666;18.994;2024-03-22T08:33:13;22.63;;;12.30;;
55025;SDS011;40925;45.666;18.994;2024-03-22T08:35:39;22.85;;;12.57;;
55025;SDS011;40925;45.666;18.994;2024-03-22T08:38:05;21.33;;;11.80;;
55025;SDS011;40925;45.666;18.994;2024-03-22T08:40:36;23.38;;;11.48;;
55025;SDS011;40925;45.666;18.994;2024-03-22T08:43:03;22.52;;;12.25;;
55025;SDS011;40925;45.666;18.994;2024-03-22T08:45:29;20.67;;;11.98;;
55025;SDS011;40925;45.666;18.994;2024-03-22T08:47:54;19.20;;;11.35;;
55025;SDS011;40925;45.666;18.994;2024-03-22T08:50:20;17.38;;;11.90;;
55025;SDS011;40925;45.666;18.994;2024-03-22T08:52:45;18.50;;;11.65;;
55025;SDS011;40925;45.666;18.994;2024-03-22T08:55:11;21.02;;;12.15;;
55025;SDS011;40925;45.666;18.994;2024-03-22T08:57:38;16.73;;;11.57;;
55025;SDS011;40925;45.666;18.994;2024-03-22T09:00:04;17.92;;;11.40;;
55025;SDS011;40925;45.666;18.994;2024-03-22T09:02:33;20.77;;;12.25;;
55025;SDS011;40925;45.666;18.994;2024-03-22T09:04:59;20.88;;;12.85;;
55025;SDS011;40925;45.666;18.994;2024-03-22T09:07:25;16.30;;;10.95;;
55025;SDS011;40925;45.666;18.994;2024-03-22T09:09:50;16.33;;;10.85;;
55025;SDS011;40925;45.666;18.994;2024-03-22T09:12:16;15.85;;;10.95;;
55025;SDS011;40925;45.666;18.994;2024-03-22T09:14:42;16.10;;;10.43;;
55025;SDS011;40925;45.666;18.994;2024-03-22T09:17:07;17.90;;;10.70;;
55025;SDS011;40925;45.666;18.994;2024-03-22T09:19:33;17.33;;;11.43;;
55025;SDS011;40925;45.666;18.994;2024-03-22T09:21:59;20.60;;;11.98;;
55025;SDS011;40925;45.666;18.994;2024-03-22T09:24:25;19.98;;;12.07;;
55025;SDS011;40925;45.666;18.994;2024-03-22T09:26:51;19.55;;;12.35;;
55025;SDS011;40925;45.666;18.994;2024-03-22T09:29:16;17.38;;;11.50;;
55025;SDS011;40925;45.666;18.994;2024-03-22T09:31:45;21.13;;;11.95;;
55025;SDS011;40925;45.666;18.994;2024-03-22T09:34:14;20.50;;;12.15;;
55025;SDS011;40925;45.666;18.994;2024-03-22T09:36:41;18.33;;;12.07;;
55025;SDS011;40925;45.666;18.994;2024-03-22T09:39:12;17.35;;;11.65;;
55025;SDS011;40925;45.666;18.994;2024-03-22T09:41:41;17.17;;;11.63;;
55025;SDS011;40925;45.666;18.994;2024-03-22T09:44:08;16.98;;;11.30;;
55025;SDS011;40925;45.666;18.994;2024-03-22T09:46:41;17.83;;;11.43;;
55025;SDS011;40925;45.666;18.994;2024-03-22T09:49:10;21.27;;;11.35;;
55025;SDS011;40925;45.666;18.994;2024-03-22T09:51:38;17.23;;;10.95;;
55025;SDS011;40925;45.666;18.994;2024-03-22T09:54:04;18.10;;;11.50;;
55025;SDS011;40925;45.666;18.994;2024-03-22T09:56:30;17.45;;;11.90;;
55025;SDS011;40925;45.666;18.994;2024-03-22T09:58:59;18.60;;;12.18;;
55025;SDS011;40925;45.666;18.994;2024-03-22T10:01:25;18.90;;;12.55;;
55025;SDS011;40925;45.666;18.994;2024-03-22T10:03:51;18.08;;;11.15;;
55025;SDS011;40925;45.666;18.994;2024-03-22T10:06:21;19.10;;;12.20;;
55025;SDS011;40925;45.666;18.994;2024-03-22T10:08:46;19.42;;;12.07;;
55025;SDS011;40925;45.666;18.994;2024-03-22T10:11:13;20.15;;;12.82;;
55025;SDS011;40925;45.666;18.994;2024-03-22T10:13:39;21.70;;;13.88;;
55025;SDS011;40925;45.666;18.994;2024-03-22T10:16:05;23.70;;;13.68;;
55025;SDS011;40925;45.666;18.994;2024-03-22T10:18:33;19.20;;;13.15;;
55025;SDS011;40925;45.666;18.994;2024-03-22T10:21:05;17.33;;;12.38;;
55025;SDS011;40925;45.666;18.994;2024-03-22T10:23:31;20.27;;;12.93;;
55025;SDS011;40925;45.666;18.994;2024-03-22T10:25:57;19.30;;;12.95;;
55025;SDS011;40925;45.666;18.994;2024-03-22T10:28:26;19.85;;;12.77;;
55025;SDS011;40925;45.666;18.994;2024-03-22T10:30:53;20.35;;;13.23;;
55025;SDS011;40925;45.666;18.994;2024-03-22T10:33:19;19.80;;;12.30;;
55025;SDS011;40925;45.666;18.994;2024-03-22T10:35:50;19.48;;;13.05;;
55025;SDS011;40925;45.666;18.994;2024-03-22T10:38:18;18.77;;;11.98;;
55025;SDS011;40925;45.666;18.994;2024-03-22T10:40:47;19.38;;;12.40;;
55025;SDS011;40925;45.666;18.994;2024-03-22T10:43:14;17.80;;;12.02;;
55025;SDS011;40925;45.666;18.994;2024-03-22T10:45:43;18.75;;;12.57;;
55025;SDS011;40925;45.666;18.994;2024-03-22T10:48:13;20.77;;;12.90;;
55025;SDS011;40925;45.666;18.994;2024-03-22T10:50:45;18.23;;;12.68;;
55025;SDS011;40925;45.666;18.994;2024-03-22T10:53:23;17.65;;;11.95;;
55025;SDS011;40925;45.666;18.994;2024-03-22T10:55:50;16.63;;;11.55;;
55025;SDS011;40925;45.666;18.994;2024-03-22T10:58:18;16.77;;;12.10;;
55025;SDS011;40925;45.666;18.994;2024-03-22T11:00:47;18.15;;;13.18;;
55025;SDS011;40925;45.666;18.994;2024-03-22T11:03:12;19.83;;;12.60;;
55025;SDS011;40925;45.666;18.994;2024-03-22T11:05:47;19.42;;;12.02;;
55025;SDS011;40925;45.666;18.994;2024-03-22T11:08:27;19.05;;;12.57;;
55025;SDS011;40925;45.666;18.994;2024-03-22T11:10:54;19.73;;;12.45;;
55025;SDS011;40925;45.666;18.994;2024-03-22T11:13:22;18.25;;;12.93;;
55025;SDS011;40925;45.666;18.994;2024-03-22T11:15:48;18.02;;;12.68;;
55025;SDS011;40925;45.666;18.994;2024-03-22T11:18:18;19.25;;;12.07;;
55025;SDS011;40925;45.666;18.994;2024-03-22T11:20:44;17.73;;;12.50;;
55025;SDS011;40925;45.666;18.994;2024-03-22T11:23:10;26.85;;;19.98;;
55025;SDS011;40925;45.666;18.994;2024-03-22T11:25:36;19.17;;;12.60;;
55025;SDS011;40925;45.666;18.994;2024-03-22T11:28:01;16.20;;;11.95;;
55025;SDS011;40925;45.666;18.994;2024-03-22T11:30:33;19.58;;;13.88;;
55025;SDS011;40925;45.666;18.994;2024-03-22T11:33:03;15.63;;;11.95;;
55025;SDS011;40925;45.666;18.994;2024-03-22T11:35:30;17.25;;;11.10;;
55025;SDS011;40925;45.666;18.994;2024-03-22T11:37:56;17.52;;;12.25;;
55025;SDS011;40925;45.666;18.994;2024-03-22T11:40:23;18.95;;;11.50;;
55025;SDS011;40925;45.666;18.994;2024-03-22T11:42:52;16.70;;;11.63;;
55025;SDS011;40925;45.666;18.994;2024-03-22T11:45:19;16.75;;;12.07;;
55025;SDS011;40925;45.666;18.994;2024-03-22T11:47:47;21.55;;;16.80;;
55025;SDS011;40925;45.666;18.994;2024-03-22T11:50:12;23.92;;;16.50;;
55025;SDS011;40925;45.666;18.994;2024-03-22T11:52:42;15.55;;;10.85;;
55025;SDS011;40925;45.666;18.994;2024-03-22T11:55:11;18.50;;;12.20;;
55025;SDS011;40925;45.666;18.994;2024-03-22T11:57:37;22.40;;;15.45;;
55025;SDS011;40925;45.666;18.994;2024-03-22T12:00:03;16.95;;;11.30;;
55025;SDS011;40925;45.666;18.994;2024-03-22T12:02:35;15.27;;;10.45;;
55025;SDS011;40925;45.666;18.994;2024-03-22T12:05:01;15.02;;;11.10;;
55025;SDS011;40925;45.666;18.994;2024-03-22T12:07:28;16.35;;;10.93;;
55025;SDS011;40925;45.666;18.994;2024-03-22T12:09:54;17.88;;;11.95;;
55025;SDS011;40925;45.666;18.994;2024-03-22T12:12:21;14.93;;;10.88;;
55025;SDS011;40925;45.666;18.994;2024-03-22T12:14:47;16.70;;;11.77;;
55025;SDS011;40925;45.666;18.994;2024-03-22T12:17:16;15.05;;;10.60;;
55025;SDS011;40925;45.666;18.994;2024-03-22T12:19:42;16.05;;;10.45;;
55025;SDS011;40925;45.666;18.994;2024-03-22T12:22:08;15.02;;;10.90;;
55025;SDS011;40925;45.666;18.994;2024-03-22T12:24:34;16.17;;;10.52;;
55025;SDS011;40925;45.666;18.994;2024-03-22T12:26:59;14.75;;;10.88;;
55025;SDS011;40925;45.666;18.994;2024-03-22T12:29:25;15.85;;;10.90;;
55025;SDS011;40925;45.666;18.994;2024-03-22T12:31:51;16.23;;;11.00;;
55025;SDS011;40925;45.666;18.994;2024-03-22T12:34:17;15.45;;;10.63;;
55025;SDS011;40925;45.666;18.994;2024-03-22T12:36:43;15.40;;;10.70;;
55025;SDS011;40925;45.666;18.994;2024-03-22T12:39:08;16.13;;;11.45;;
55025;SDS011;40925;45.666;18.994;2024-03-22T12:41:34;13.90;;;10.40;;
55025;SDS011;40925;45.666;18.994;2024-03-22T12:44:00;16.08;;;11.68;;
55025;SDS011;40925;45.666;18.994;2024-03-22T12:46:26;17.10;;;12.25;;
55025;SDS011;40925;45.666;18.994;2024-03-22T12:48:52;15.98;;;11.05;;
55025;SDS011;40925;45.666;18.994;2024-03-22T12:51:19;17.98;;;12.35;;
55025;SDS011;40925;45.666;18.994;2024-03-22T12:53:45;18.20;;;11.30;;
55025;SDS011;40925;45.666;18.994;2024-03-22T12:56:11;16.73;;;10.70;;
55025;SDS011;40925;45.666;18.994;2024-03-22T12:58:37;14.98;;;10.30;;
55025;SDS011;40925;45.666;18.994;2024-03-22T13:01:03;17.08;;;12.25;;
55025;SDS011;40925;45.666;18.994;2024-03-22T13:03:31;16.58;;;10.93;;
55025;SDS011;40925;45.666;18.994;2024-03-22T13:05:57;16.60;;;11.85;;
55025;SDS011;40925;45.666;18.994;2024-03-22T13:08:23;18.17;;;11.75;;
55025;SDS011;40925;45.666;18.994;2024-03-22T13:10:48;25.33;;;16.58;;
55025;SDS011;40925;45.666;18.994;2024-03-22T13:13:14;15.88;;;11.13;;
55025;SDS011;40925;45.666;18.994;2024-03-22T13:15:42;13.85;;;10.13;;
55025;SDS011;40925;45.666;18.994;2024-03-22T13:18:08;15.57;;;10.93;;
55025;SDS011;40925;45.666;18.994;2024-03-22T13:20:37;15.48;;;11.10;;
55025;SDS011;40925;45.666;18.994;2024-03-22T13:23:03;17.42;;;12.00;;
55025;SDS011;40925;45.666;18.994;2024-03-22T13:25:29;18.67;;;12.23;;
55025;SDS011;40925;45.666;18.994;2024-03-22T13:27:55;17.92;;;12.98;;
55025;SDS011;40925;45.666;18.994;2024-03-22T13:30:20;18.77;;;11.98;;
55025;SDS011;40925;45.666;18.994;2024-03-22T13:32:46;16.10;;;11.45;;
55025;SDS011;40925;45.666;18.994;2024-03-22T13:35:12;17.20;;;11.63;;
55025;SDS011;40925;45.666;18.994;2024-03-22T13:37:40;17.25;;;10.88;;
55025;SDS011;40925;45.666;18.994;2024-03-22T13:40:07;13.95;;;10.88;;
55025;SDS011;40925;45.666;18.994;2024-03-22T13:42:33;18.13;;;11.52;;
55025;SDS011;40925;45.666;18.994;2024-03-22T13:44:59;14.82;;;11.45;;
55025;SDS011;40925;45.666;18.994;2024-03-22T13:47:26;14.77;;;10.93;;
55025;SDS011;40925;45.666;18.994;2024-03-22T13:49:55;15.68;;;11.13;;
55025;SDS011;40925;45.666;18.994;2024-03-22T13:52:23;17.85;;;13.35;;
55025;SDS011;40925;45.666;18.994;2024-03-22T13:54:49;18.15;;;11.95;;
55025;SDS011;40925;45.666;18.994;2024-03-22T13:57:17;19.58;;;13.48;;
55025;SDS011;40925;45.666;18.994;2024-03-22T13:59:43;17.60;;;11.63;;
55025;SDS011;40925;45.666;18.994;2024-03-22T14:02:09;15.77;;;10.63;;
55025;SDS011;40925;45.666;18.994;2024-03-22T14:04:35;19.00;;;12.05;;